sensor_id;sensor_type;location;lat;lon;timestamp;P1;durP1;ratioP1;P2;durP2;ratioP2
51838;SDS011;37886;53.174;6.368;2023-04-03T00:00:08;7.63;;;6.95;;
51838;SDS011;37886;53.174;6.368;2023-04-03T00:02:35;7.07;;;6.43;;
51838;SDS011;37886;53.174;6.368;2023-04-03T00:05:00;7.10;;;6.30;;
51838;SDS011;37886;53.174;6.368;2023-04-03T00:07:26;7.38;;;6.65;;
51838;SDS011;37886;53.174;6.368;2023-04-03T00:09:52;6.72;;;6.22;;
51838;SDS011;37886;53.174;6.368;2023-04-03T00:12:17;7.55;;;6.95;;
51838;SDS011;37886;53.174;6.368;2023-04-03T00:14:43;7.85;;;7.15;;
51838;SDS011;37886;53.174;6.368;2023-04-03T00:17:09;8.32;;;6.95;;
51838;SDS011;37886;53.174;6.368;2023-04-03T00:19:34;6.68;;;6.07;;
51838;SDS011;37886;53.174;6.368;2023-04-03T00:22:00;9.43;;;6.95;;
51838;SDS011;37886;53.174;6.368;2023-04-03T00:24:26;7.25;;;6.65;;
51838;SDS011;37886;53.174;6.368;2023-04-03T00:26:52;6.90;;;6.35;;
51838;SDS011;37886;53.174;6.368;2023-04-03T00:29:18;8.15;;;6.82;;
51838;SDS011;37886;53.174;6.368;2023-04-03T00:31:43;6.75;;;6.13;;
51838;SDS011;37886;53.174;6.368;2023-04-03T00:34:09;7.45;;;6.75;;
51838;SDS011;37886;53.174;6.368;2023-04-03T00:36:35;8.43;;;6.50;;
51838;SDS011;37886;53.174;6.368;2023-04-03T00:39:00;8.38;;;5.93;;
51838;SDS011;37886;53.174;6.368;2023-04-03T00:41:26;6.57;;;6.00;;
51838;SDS011;37886;53.174;6.368;2023-04-03T00:43:52;7.72;;;6.05;;
51838;SDS011;37886;53.174;6.368;2023-04-03T00:46:17;8.07;;;6.53;;
51838;SDS011;37886;53.174;6.368;2023-04-03T00:48:47;7.82;;;6.72;;
51838;SDS011;37886;53.174;6.368;2023-04-03T00:51:17;7.32;;;6.63;;
51838;SDS011;37886;53.174;6.368;2023-04-03T00:54:01;8.02;;;6.97;;
51838;SDS011;37886;53.174;6.368;2023-04-03T00:56:30;7.55;;;6.75;;
51838;SDS011;37886;53.174;6.368;2023-04-03T01:09:02;9.75;;;6.85;;
51838;SDS011;37886;53.174;6.368;2023-04-03T01:11:29;8.10;;;6.50;;
51838;SDS011;37886;53.174;6.368;2023-04-03T01:13:54;7.00;;;6.30;;
51838;SDS011;37886;53.174;6.368;2023-04-03T01:16:26;7.10;;;6.47;;
51838;SDS011;37886;53.174;6.368;2023-04-03T01:19:13;6.47;;;5.95;;
51838;SDS011;37886;53.174;6.368;2023-04-03T01:24:27;7.22;;;6.25;;
51838;SDS011;37886;53.174;6.368;2023-04-03T01:27:04;13.23;;;6.40;;
51838;SDS011;37886;53.174;6.368;2023-04-03T01:29:32;7.60;;;6.20;;
51838;SDS011;37886;53.174;6.368;2023-04-03T01:31:58;6.57;;;6.07;;
51838;SDS011;37886;53.174;6.368;2023-04-03T01:34:26;8.02;;;7.22;;
51838;SDS011;37886;53.174;6.368;2023-04-03T01:36:53;7.60;;;6.13;;
51838;SDS011;37886;53.174;6.368;2023-04-03T01:39:19;7.35;;;6.28;;
51838;SDS011;37886;53.174;6.368;2023-04-03T01:41:46;8.95;;;6.65;;
51838;SDS011;37886;53.174;6.368;2023-04-03T01:44:12;7.45;;;6.75;;
51838;SDS011;37886;53.174;6.368;2023-04-03T01:46:38;8.25;;;6.47;;
51838;SDS011;37886;53.174;6.368;2023-04-03T01:49:04;8.77;;;6.90;;
51838;SDS011;37886;53.174;6.368;2023-04-03T01:51:30;10.88;;;5.97;;
51838;SDS011;37886;53.174;6.368;2023-04-03T01:53:56;11.48;;;7.35;;
51838;SDS011;37886;53.174;6.368;2023-04-03T01:56:22;12.73;;;6.53;;
51838;SDS011;37886;53.174;6.368;2023-04-03T01:58:47;9.98;;;7.38;;
51838;SDS011;37886;53.174;6.368;2023-04-03T02:01:13;9.48;;;7.32;;
51838;SDS011;37886;53.174;6.368;2023-04-03T02:03:40;8.77;;;6.65;;
51838;SDS011;37886;53.174;6.368;2023-04-03T02:06:05;7.93;;;7.13;;
51838;SDS011;37886;53.174;6.368;2023-04-03T02:08:31;8.32;;;6.30;;
51838;SDS011;37886;53.174;6.368;2023-04-03T02:10:57;8.88;;;6.38;;
51838;SDS011;37886;53.174;6.368;2023-04-03T02:13:23;7.95;;;6.43;;
51838;SDS011;37886;53.174;6.368;2023-04-03T02:15:48;14.05;;;6.57;;
51838;SDS011;37886;53.174;6.368;2023-04-03T02:18:14;7.57;;;6.85;;
51838;SDS011;37886;53.174;6.368;2023-04-03T02:20:40;10.88;;;6.78;;
51838;SDS011;37886;53.174;6.368;2023-04-03T02:23:05;9.27;;;7.00;;
51838;SDS011;37886;53.174;6.368;2023-04-03T02:25:32;7.70;;;6.85;;
51838;SDS011;37886;53.174;6.368;2023-04-03T02:27:58;13.48;;;6.88;;
51838;SDS011;37886;53.174;6.368;2023-04-03T02:30:24;8.52;;;6.85;;
51838;SDS011;37886;53.174;6.368;2023-04-03T02:32:50;10.20;;;6.25;;
51838;SDS011;37886;53.174;6.368;2023-04-03T02:35:15;8.52;;;6.72;;
51838;SDS011;37886;53.174;6.368;2023-04-03T02:37:41;9.88;;;7.03;;
51838;SDS011;37886;53.174;6.368;2023-04-03T02:40:07;8.35;;;6.65;;
51838;SDS011;37886;53.174;6.368;2023-04-03T02:42:33;10.48;;;6.45;;
51838;SDS011;37886;53.174;6.368;2023-04-03T02:44:59;10.25;;;6.93;;
51838;SDS011;37886;53.174;6.368;2023-04-03T02:47:27;7.65;;;6.90;;
51838;SDS011;37886;53.174;6.368;2023-04-03T02:49:53;7.93;;;6.97;;
51838;SDS011;37886;53.174;6.368;2023-04-03T02:52:19;8.70;;;6.88;;
51838;SDS011;37886;53.174;6.368;2023-04-03T02:54:45;11.32;;;6.72;;
51838;SDS011;37886;53.174;6.368;2023-04-03T02:57:11;10.30;;;6.95;;
51838;SDS011;37886;53.174;6.368;2023-04-03T02:59:37;9.77;;;7.35;;
51838;SDS011;37886;53.174;6.368;2023-04-03T03:02:06;9.82;;;7.32;;
51838;SDS011;37886;53.174;6.368;2023-04-03T03:04:32;8.38;;;6.47;;
51838;SDS011;37886;53.174;6.368;2023-04-03T03:06:58;7.97;;;6.90;;
51838;SDS011;37886;53.174;6.368;2023-04-03T03:09:24;8.68;;;7.22;;
51838;SDS011;37886;53.174;6.368;2023-04-03T03:11:50;7.95;;;7.25;;
51838;SDS011;37886;53.174;6.368;2023-04-03T03:14:16;7.93;;;7.05;;
51838;SDS011;37886;53.174;6.368;2023-04-03T03:16:42;9.90;;;6.93;;
51838;SDS011;37886;53.174;6.368;2023-04-03T03:19:07;10.57;;;7.75;;
51838;SDS011;37886;53.174;6.368;2023-04-03T03:21:33;8.40;;;7.32;;
51838;SDS011;37886;53.174;6.368;2023-04-03T03:23:59;8.02;;;7.22;;
51838;SDS011;37886;53.174;6.368;2023-04-03T03:26:24;12.80;;;8.40;;
51838;SDS011;37886;53.174;6.368;2023-04-03T03:28:50;14.25;;;6.95;;
51838;SDS011;37886;53.174;6.368;2023-04-03T03:31:16;12.20;;;8.63;;
51838;SDS011;37886;53.174;6.368;2023-04-03T03:33:41;10.82;;;7.50;;
51838;SDS011;37886;53.174;6.368;2023-04-03T03:36:07;14.25;;;8.27;;
51838;SDS011;37886;53.174;6.368;2023-04-03T03:38:33;10.35;;;8.48;;
51838;SDS011;37886;53.174;6.368;2023-04-03T03:40:58;15.35;;;8.45;;
51838;SDS011;37886;53.174;6.368;2023-04-03T03:43:24;8.98;;;8.02;;
51838;SDS011;37886;53.174;6.368;2023-04-03T03:45:51;14.68;;;8.05;;
51838;SDS011;37886;53.174;6.368;2023-04-03T03:48:17;16.98;;;7.90;;
51838;SDS011;37886;53.174;6.368;2023-04-03T03:50:43;11.15;;;7.75;;
51838;SDS011;37886;53.174;6.368;2023-04-03T03:53:09;9.10;;;7.70;;
51838;SDS011;37886;53.174;6.368;2023-04-03T03:55:35;18.05;;;7.85;;
51838;SDS011;37886;53.174;6.368;2023-04-03T03:58:01;11.27;;;8.60;;
51838;SDS011;37886;53.174;6.368;2023-04-03T04:00:27;10.77;;;8.00;;
51838;SDS011;37886;53.174;6.368;2023-04-03T04:02:53;13.73;;;7.53;;
51838;SDS011;37886;53.174;6.368;2023-04-03T04:05:18;15.48;;;8.38;;
51838;SDS011;37886;53.174;6.368;2023-04-03T04:07:44;13.45;;;7.15;;
51838;SDS011;37886;53.174;6.368;2023-04-03T04:10:10;8.32;;;7.38;;
51838;SDS011;37886;53.174;6.368;2023-04-03T04:12:36;11.55;;;8.15;;
51838;SDS011;37886;53.174;6.368;2023-04-03T04:15:02;10.57;;;8.68;;
51838;SDS011;37886;53.174;6.368;2023-04-03T04:17:28;14.00;;;7.63;;
51838;SDS011;37886;53.174;6.368;2023-04-03T04:19:54;14.15;;;8.75;;
51838;SDS011;37886;53.174;6.368;2023-04-03T04:22:19;10.02;;;7.38;;
51838;SDS011;37886;53.174;6.368;2023-04-03T04:24:45;9.50;;;7.47;;
51838;SDS011;37886;53.174;6.368;2023-04-03T04:27:10;8.88;;;8.02;;
51838;SDS011;37886;53.174;6.368;2023-04-03T04:29:36;17.38;;;8.55;;
51838;SDS011;37886;53.174;6.368;2023-04-03T04:32:03;11.68;;;7.97;;
51838;SDS011;37886;53.174;6.368;2023-04-03T04:34:29;11.30;;;8.38;;
51838;SDS011;37886;53.174;6.368;2023-04-03T04:36:55;14.38;;;8.70;;
51838;SDS011;37886;53.174;6.368;2023-04-03T04:39:21;11.80;;;7.70;;
51838;SDS011;37886;53.174;6.368;2023-04-03T04:41:46;13.25;;;8.25;;
51838;SDS011;37886;53.174;6.368;2023-04-03T04:44:12;16.85;;;8.90;;
51838;SDS011;37886;53.174;6.368;2023-04-03T04:46:38;15.40;;;8.40;;
51838;SDS011;37886;53.174;6.368;2023-04-03T04:49:03;11.63;;;8.00;;
51838;SDS011;37886;53.174;6.368;2023-04-03T04:51:29;13.48;;;9.38;;
51838;SDS011;37886;53.174;6.368;2023-04-03T04:53:55;15.18;;;8.00;;
51838;SDS011;37886;53.174;6.368;2023-04-03T04:56:20;8.52;;;7.63;;
51838;SDS011;37886;53.174;6.368;2023-04-03T04:58:46;11.95;;;7.95;;
51838;SDS011;37886;53.174;6.368;2023-04-03T05:01:12;12.90;;;8.85;;
51838;SDS011;37886;53.174;6.368;2023-04-03T05:03:38;13.25;;;8.77;;
51838;SDS011;37886;53.174;6.368;2023-04-03T05:06:03;12.65;;;8.75;;
51838;SDS011;37886;53.174;6.368;2023-04-03T05:08:30;11.52;;;7.93;;
51838;SDS011;37886;53.174;6.368;2023-04-03T05:10:56;16.13;;;8.52;;
51838;SDS011;37886;53.174;6.368;2023-04-03T05:13:22;16.45;;;8.65;;
51838;SDS011;37886;53.174;6.368;2023-04-03T05:15:48;14.05;;;8.88;;
51838;SDS011;37886;53.174;6.368;2023-04-03T05:18:13;13.00;;;8.13;;
51838;SDS011;37886;53.174;6.368;2023-04-03T05:20:39;11.48;;;8.25;;
51838;SDS011;37886;53.174;6.368;2023-04-03T05:23:05;12.75;;;8.98;;
51838;SDS011;37886;53.174;6.368;2023-04-03T05:25:31;13.40;;;9.00;;
51838;SDS011;37886;53.174;6.368;2023-04-03T05:27:56;13.18;;;8.70;;
51838;SDS011;37886;53.174;6.368;2023-04-03T05:30:22;15.90;;;8.38;;
51838;SDS011;37886;53.174;6.368;2023-04-03T05:32:48;16.98;;;9.25;;
51838;SDS011;37886;53.174;6.368;2023-04-03T05:35:13;11.18;;;8.32;;
51838;SDS011;37886;53.174;6.368;2023-04-03T05:37:39;11.25;;;8.27;;
51838;SDS011;37886;53.174;6.368;2023-04-03T05:40:06;12.43;;;9.88;;
51838;SDS011;37886;53.174;6.368;2023-04-03T05:42:32;13.45;;;8.73;;
51838;SDS011;37886;53.174;6.368;2023-04-03T05:44:58;12.88;;;8.82;;
51838;SDS011;37886;53.174;6.368;2023-04-03T05:47:23;15.68;;;9.23;;
51838;SDS011;37886;53.174;6.368;2023-04-03T05:49:49;20.92;;;8.93;;
51838;SDS011;37886;53.174;6.368;2023-04-03T05:54:50;13.95;;;8.57;;
51838;SDS011;37886;53.174;6.368;2023-04-03T05:57:15;18.63;;;9.45;;
51838;SDS011;37886;53.174;6.368;2023-04-03T05:59:45;12.48;;;9.18;;
51838;SDS011;37886;53.174;6.368;2023-04-03T06:02:21;16.20;;;9.90;;
51838;SDS011;37886;53.174;6.368;2023-04-03T06:04:48;15.63;;;9.85;;
51838;SDS011;37886;53.174;6.368;2023-04-03T06:07:15;14.35;;;10.35;;
51838;SDS011;37886;53.174;6.368;2023-04-03T06:09:46;14.48;;;9.52;;
51838;SDS011;37886;53.174;6.368;2023-04-03T06:12:13;22.55;;;11.05;;
51838;SDS011;37886;53.174;6.368;2023-04-03T06:14:39;19.90;;;10.10;;
51838;SDS011;37886;53.174;6.368;2023-04-03T06:17:05;22.15;;;10.65;;
51838;SDS011;37886;53.174;6.368;2023-04-03T06:19:31;19.60;;;9.43;;
51838;SDS011;37886;53.174;6.368;2023-04-03T06:21:57;14.63;;;9.40;;
51838;SDS011;37886;53.174;6.368;2023-04-03T06:24:23;17.60;;;9.35;;
51838;SDS011;37886;53.174;6.368;2023-04-03T06:26:50;17.15;;;9.43;;
51838;SDS011;37886;53.174;6.368;2023-04-03T06:29:17;14.65;;;9.38;;
51838;SDS011;37886;53.174;6.368;2023-04-03T06:31:46;12.95;;;8.52;;
51838;SDS011;37886;53.174;6.368;2023-04-03T06:34:13;13.95;;;8.35;;
51838;SDS011;37886;53.174;6.368;2023-04-03T06:36:39;13.10;;;9.30;;
51838;SDS011;37886;53.174;6.368;2023-04-03T06:39:05;14.32;;;8.13;;
51838;SDS011;37886;53.174;6.368;2023-04-03T06:41:32;10.93;;;7.93;;
51838;SDS011;37886;53.174;6.368;2023-04-03T06:43:58;18.10;;;8.45;;
51838;SDS011;37886;53.174;6.368;2023-04-03T06:46:24;11.98;;;8.45;;
51838;SDS011;37886;53.174;6.368;2023-04-03T06:48:51;13.75;;;8.23;;
51838;SDS011;37886;53.174;6.368;2023-04-03T06:53:48;10.50;;;7.80;;
51838;SDS011;37886;53.174;6.368;2023-04-03T06:56:17;12.10;;;9.32;;
51838;SDS011;37886;53.174;6.368;2023-04-03T06:58:47;15.55;;;8.80;;
51838;SDS011;37886;53.174;6.368;2023-04-03T07:01:13;11.13;;;7.43;;
51838;SDS011;37886;53.174;6.368;2023-04-03T07:03:40;16.05;;;8.32;;
51838;SDS011;37886;53.174;6.368;2023-04-03T07:06:07;14.85;;;8.60;;
51838;SDS011;37886;53.174;6.368;2023-04-03T07:08:35;13.00;;;7.90;;
51838;SDS011;37886;53.174;6.368;2023-04-03T07:11:01;10.23;;;8.40;;
51838;SDS011;37886;53.174;6.368;2023-04-03T07:13:27;14.25;;;8.50;;
51838;SDS011;37886;53.174;6.368;2023-04-03T07:15:53;12.60;;;7.93;;
51838;SDS011;37886;53.174;6.368;2023-04-03T07:18:20;12.30;;;7.85;;
51838;SDS011;37886;53.174;6.368;2023-04-03T07:20:46;11.13;;;8.48;;
51838;SDS011;37886;53.174;6.368;2023-04-03T07:23:12;12.55;;;7.43;;
51838;SDS011;37886;53.174;6.368;2023-04-03T07:25:44;10.35;;;7.55;;
51838;SDS011;37886;53.174;6.368;2023-04-03T07:28:12;12.05;;;7.80;;
51838;SDS011;37886;53.174;6.368;2023-04-03T07:30:45;16.27;;;8.15;;
51838;SDS011;37886;53.174;6.368;2023-04-03T07:33:12;14.88;;;8.55;;
51838;SDS011;37886;53.174;6.368;2023-04-03T07:35:39;15.60;;;7.88;;
51838;SDS011;37886;53.174;6.368;2023-04-03T07:38:05;12.43;;;8.48;;
51838;SDS011;37886;53.174;6.368;2023-04-03T07:40:31;10.05;;;7.43;;
51838;SDS011;37886;53.174;6.368;2023-04-03T07:42:58;16.55;;;9.07;;
51838;SDS011;37886;53.174;6.368;2023-04-03T07:45:24;8.18;;;7.28;;
51838;SDS011;37886;53.174;6.368;2023-04-03T07:47:50;12.13;;;7.63;;
51838;SDS011;37886;53.174;6.368;2023-04-03T07:50:16;10.25;;;8.32;;
51838;SDS011;37886;53.174;6.368;2023-04-03T07:52:42;12.90;;;8.45;;
51838;SDS011;37886;53.174;6.368;2023-04-03T07:55:08;14.40;;;8.50;;
51838;SDS011;37886;53.174;6.368;2023-04-03T07:57:34;12.90;;;7.60;;
51838;SDS011;37886;53.174;6.368;2023-04-03T08:00:00;10.23;;;7.35;;
51838;SDS011;37886;53.174;6.368;2023-04-03T08:02:26;12.90;;;8.48;;
51838;SDS011;37886;53.174;6.368;2023-04-03T08:04:52;9.82;;;7.40;;
51838;SDS011;37886;53.174;6.368;2023-04-03T08:07:17;10.43;;;7.43;;
51838;SDS011;37886;53.174;6.368;2023-04-03T08:09:43;10.20;;;7.55;;
51838;SDS011;37886;53.174;6.368;2023-04-03T08:12:09;10.65;;;7.72;;
51838;SDS011;37886;53.174;6.368;2023-04-03T08:14:36;13.68;;;7.72;;
51838;SDS011;37886;53.174;6.368;2023-04-03T08:17:02;11.70;;;7.25;;
51838;SDS011;37886;53.174;6.368;2023-04-03T08:19:30;9.25;;;7.45;;
51838;SDS011;37886;53.174;6.368;2023-04-03T08:21:56;8.75;;;7.85;;
51838;SDS011;37886;53.174;6.368;2023-04-03T08:24:23;13.38;;;7.32;;
51838;SDS011;37886;53.174;6.368;2023-04-03T08:26:49;10.45;;;7.25;;
51838;SDS011;37886;53.174;6.368;2023-04-03T08:29:15;13.13;;;7.45;;
51838;SDS011;37886;53.174;6.368;2023-04-03T08:31:41;8.18;;;7.30;;
51838;SDS011;37886;53.174;6.368;2023-04-03T08:34:07;10.88;;;6.97;;
51838;SDS011;37886;53.174;6.368;2023-04-03T08:36:33;9.68;;;7.80;;
51838;SDS011;37886;53.174;6.368;2023-04-03T08:38:59;14.88;;;7.50;;
51838;SDS011;37886;53.174;6.368;2023-04-03T08:51:53;7.65;;;6.85;;
51838;SDS011;37886;53.174;6.368;2023-04-03T08:54:28;8.07;;;6.90;;
51838;SDS011;37886;53.174;6.368;2023-04-03T08:56:58;7.35;;;6.57;;
51838;SDS011;37886;53.174;6.368;2023-04-03T08:59:32;7.78;;;6.95;;
51838;SDS011;37886;53.174;6.368;2023-04-03T09:02:01;19.05;;;7.68;;
51838;SDS011;37886;53.174;6.368;2023-04-03T09:04:31;10.40;;;7.15;;
51838;SDS011;37886;53.174;6.368;2023-04-03T09:07:00;8.07;;;7.03;;
51838;SDS011;37886;53.174;6.368;2023-04-03T09:09:36;8.48;;;7.70;;
51838;SDS011;37886;53.174;6.368;2023-04-03T09:12:15;10.90;;;7.03;;
51838;SDS011;37886;53.174;6.368;2023-04-03T09:17:41;8.55;;;7.55;;
51838;SDS011;37886;53.174;6.368;2023-04-03T09:20:38;7.35;;;6.75;;
51838;SDS011;37886;53.174;6.368;2023-04-03T09:23:18;8.20;;;7.40;;
51838;SDS011;37886;53.174;6.368;2023-04-03T09:26:08;8.20;;;7.35;;
51838;SDS011;37886;53.174;6.368;2023-04-03T09:28:39;9.38;;;7.63;;
51838;SDS011;37886;53.174;6.368;2023-04-03T09:31:42;7.20;;;6.45;;
51838;SDS011;37886;53.174;6.368;2023-04-03T09:34:16;8.80;;;7.95;;
51838;SDS011;37886;53.174;6.368;2023-04-03T09:36:52;10.77;;;7.75;;
51838;SDS011;37886;53.174;6.368;2023-04-03T09:39:28;8.88;;;7.75;;
51838;SDS011;37886;53.174;6.368;2023-04-03T09:41:58;7.95;;;7.15;;
51838;SDS011;37886;53.174;6.368;2023-04-03T09:44:31;9.43;;;8.43;;
51838;SDS011;37886;53.174;6.368;2023-04-03T09:47:00;8.40;;;7.18;;
51838;SDS011;37886;53.174;6.368;2023-04-03T09:50:17;8.05;;;7.35;;
51838;SDS011;37886;53.174;6.368;2023-04-03T09:52:46;7.78;;;7.00;;
51838;SDS011;37886;53.174;6.368;2023-04-03T09:57:40;10.52;;;8.80;;
51838;SDS011;37886;53.174;6.368;2023-04-03T10:00:10;10.43;;;7.63;;
51838;SDS011;37886;53.174;6.368;2023-04-03T10:02:46;8.23;;;7.45;;
51838;SDS011;37886;53.174;6.368;2023-04-03T10:05:31;8.20;;;7.60;;
51838;SDS011;37886;53.174;6.368;2023-04-03T10:10:33;8.15;;;7.53;;
51838;SDS011;37886;53.174;6.368;2023-04-03T10:13:06;9.75;;;8.35;;
51838;SDS011;37886;53.174;6.368;2023-04-03T10:15:46;8.73;;;8.05;;
51838;SDS011;37886;53.174;6.368;2023-04-03T10:18:28;7.80;;;7.20;;
51838;SDS011;37886;53.174;6.368;2023-04-03T10:21:26;8.18;;;7.35;;
51838;SDS011;37886;53.174;6.368;2023-04-03T10:26:39;8.35;;;7.53;;
51838;SDS011;37886;53.174;6.368;2023-04-03T10:29:38;8.77;;;8.18;;
51838;SDS011;37886;53.174;6.368;2023-04-03T10:40:49;8.80;;;8.10;;
51838;SDS011;37886;53.174;6.368;2023-04-03T10:46:18;9.48;;;8.55;;
51838;SDS011;37886;53.174;6.368;2023-04-03T10:52:06;9.90;;;9.10;;
51838;SDS011;37886;53.174;6.368;2023-04-03T10:54:42;8.98;;;8.38;;
51838;SDS011;37886;53.174;6.368;2023-04-03T10:57:30;8.73;;;7.88;;
51838;SDS011;37886;53.174;6.368;2023-04-03T10:59:57;9.32;;;8.52;;
51838;SDS011;37886;53.174;6.368;2023-04-03T11:02:39;9.73;;;9.02;;
51838;SDS011;37886;53.174;6.368;2023-04-03T11:08:02;8.50;;;7.80;;
51838;SDS011;37886;53.174;6.368;2023-04-03T11:10:37;8.65;;;8.00;;
51838;SDS011;37886;53.174;6.368;2023-04-03T11:13:15;8.63;;;8.13;;
51838;SDS011;37886;53.174;6.368;2023-04-03T11:15:48;8.90;;;8.20;;
51838;SDS011;37886;53.174;6.368;2023-04-03T11:18:19;9.60;;;8.85;;
51838;SDS011;37886;53.174;6.368;2023-04-03T11:20:57;9.20;;;8.50;;
51838;SDS011;37886;53.174;6.368;2023-04-03T11:23:30;10.43;;;9.60;;
51838;SDS011;37886;53.174;6.368;2023-04-03T11:26:21;8.38;;;7.80;;
51838;SDS011;37886;53.174;6.368;2023-04-03T11:28:52;9.40;;;8.70;;
51838;SDS011;37886;53.174;6.368;2023-04-03T11:36:54;10.00;;;9.38;;
51838;SDS011;37886;53.174;6.368;2023-04-03T11:39:26;9.88;;;9.07;;
51838;SDS011;37886;53.174;6.368;2023-04-03T11:42:12;8.60;;;8.00;;
51838;SDS011;37886;53.174;6.368;2023-04-03T11:44:41;10.07;;;9.38;;
51838;SDS011;37886;53.174;6.368;2023-04-03T11:47:11;9.10;;;8.02;;
51838;SDS011;37886;53.174;6.368;2023-04-03T11:50:01;8.68;;;7.95;;
51838;SDS011;37886;53.174;6.368;2023-04-03T12:21:18;9.10;;;8.30;;
51838;SDS011;37886;53.174;6.368;2023-04-03T12:29:33;9.55;;;8.60;;
51838;SDS011;37886;53.174;6.368;2023-04-03T12:34:46;10.02;;;9.05;;
51838;SDS011;37886;53.174;6.368;2023-04-03T12:45:21;10.13;;;9.33;;
51838;SDS011;37886;53.174;6.368;2023-04-03T12:47:55;9.77;;;9.05;;
51838;SDS011;37886;53.174;6.368;2023-04-03T12:50:22;10.48;;;9.75;;
51838;SDS011;37886;53.174;6.368;2023-04-03T12:55:24;10.50;;;9.60;;
51838;SDS011;37886;53.174;6.368;2023-04-03T12:57:50;10.18;;;9.27;;
51838;SDS011;37886;53.174;6.368;2023-04-03T13:02:59;9.90;;;9.30;;
51838;SDS011;37886;53.174;6.368;2023-04-03T13:05:30;10.10;;;9.40;;
51838;SDS011;37886;53.174;6.368;2023-04-03T13:08:00;10.43;;;9.73;;
51838;SDS011;37886;53.174;6.368;2023-04-03T13:10:30;10.38;;;9.48;;
51838;SDS011;37886;53.174;6.368;2023-04-03T13:13:08;10.27;;;9.48;;
51838;SDS011;37886;53.174;6.368;2023-04-03T13:15:43;9.70;;;9.00;;
51838;SDS011;37886;53.174;6.368;2023-04-03T13:21:06;9.88;;;9.18;;
51838;SDS011;37886;53.174;6.368;2023-04-03T13:23:39;10.95;;;10.07;;
51838;SDS011;37886;53.174;6.368;2023-04-03T13:26:07;10.13;;;9.23;;
51838;SDS011;37886;53.174;6.368;2023-04-03T13:28:34;10.85;;;9.85;;
51838;SDS011;37886;53.174;6.368;2023-04-03T13:31:04;10.35;;;9.45;;
51838;SDS011;37886;53.174;6.368;2023-04-03T13:33:35;10.25;;;9.55;;
51838;SDS011;37886;53.174;6.368;2023-04-03T13:36:06;10.77;;;9.90;;
51838;SDS011;37886;53.174;6.368;2023-04-03T13:38:43;10.15;;;9.35;;
51838;SDS011;37886;53.174;6.368;2023-04-03T13:46:52;9.85;;;9.25;;
51838;SDS011;37886;53.174;6.368;2023-04-03T13:49:38;10.32;;;9.32;;
51838;SDS011;37886;53.174;6.368;2023-04-03T13:54:58;10.10;;;9.40;;
51838;SDS011;37886;53.174;6.368;2023-04-03T13:57:27;10.45;;;9.55;;
51838;SDS011;37886;53.174;6.368;2023-04-03T13:59:53;9.95;;;9.20;;
51838;SDS011;37886;53.174;6.368;2023-04-03T14:02:29;10.35;;;9.65;;
51838;SDS011;37886;53.174;6.368;2023-04-03T14:04:58;10.52;;;9.60;;
51838;SDS011;37886;53.174;6.368;2023-04-03T14:07:28;10.23;;;9.40;;
51838;SDS011;37886;53.174;6.368;2023-04-03T14:09:55;9.85;;;9.25;;
51838;SDS011;37886;53.174;6.368;2023-04-03T14:14:52;10.20;;;9.40;;
51838;SDS011;37886;53.174;6.368;2023-04-03T14:17:19;10.85;;;9.85;;
51838;SDS011;37886;53.174;6.368;2023-04-03T14:19:49;10.55;;;9.70;;
51838;SDS011;37886;53.174;6.368;2023-04-03T14:22:19;9.95;;;9.25;;
51838;SDS011;37886;53.174;6.368;2023-04-03T14:24:47;9.85;;;9.15;;
51838;SDS011;37886;53.174;6.368;2023-04-03T14:29:46;10.52;;;9.82;;
51838;SDS011;37886;53.174;6.368;2023-04-03T14:32:13;10.98;;;10.00;;
51838;SDS011;37886;53.174;6.368;2023-04-03T14:34:41;9.95;;;9.18;;
51838;SDS011;37886;53.174;6.368;2023-04-03T14:37:12;10.32;;;9.55;;
51838;SDS011;37886;53.174;6.368;2023-04-03T14:39:39;11.18;;;10.32;;
51838;SDS011;37886;53.174;6.368;2023-04-03T14:42:05;11.15;;;10.25;;
51838;SDS011;37886;53.174;6.368;2023-04-03T14:44:36;10.93;;;10.10;;
51838;SDS011;37886;53.174;6.368;2023-04-03T14:47:02;10.68;;;9.75;;
51838;SDS011;37886;53.174;6.368;2023-04-03T14:49:28;11.38;;;10.50;;
51838;SDS011;37886;53.174;6.368;2023-04-03T14:51:55;11.25;;;10.23;;
51838;SDS011;37886;53.174;6.368;2023-04-03T14:54:22;11.27;;;10.38;;
51838;SDS011;37886;53.174;6.368;2023-04-03T14:56:53;10.30;;;9.50;;
51838;SDS011;37886;53.174;6.368;2023-04-03T14:59:20;10.75;;;9.93;;
51838;SDS011;37886;53.174;6.368;2023-04-03T15:01:46;11.57;;;10.77;;
51838;SDS011;37886;53.174;6.368;2023-04-03T15:04:17;10.23;;;9.50;;
51838;SDS011;37886;53.174;6.368;2023-04-03T15:06:46;10.70;;;9.80;;
51838;SDS011;37886;53.174;6.368;2023-04-03T15:09:18;10.48;;;9.65;;
51838;SDS011;37886;53.174;6.368;2023-04-03T15:11:47;10.77;;;9.75;;
51838;SDS011;37886;53.174;6.368;2023-04-03T15:14:13;10.10;;;9.38;;
51838;SDS011;37886;53.174;6.368;2023-04-03T15:16:39;10.93;;;10.13;;
51838;SDS011;37886;53.174;6.368;2023-04-03T15:19:05;10.23;;;9.45;;
51838;SDS011;37886;53.174;6.368;2023-04-03T15:21:30;11.65;;;10.65;;
51838;SDS011;37886;53.174;6.368;2023-04-03T15:23:56;10.52;;;9.60;;
51838;SDS011;37886;53.174;6.368;2023-04-03T15:26:21;10.30;;;9.38;;
51838;SDS011;37886;53.174;6.368;2023-04-03T15:28:47;11.18;;;10.07;;
51838;SDS011;37886;53.174;6.368;2023-04-03T15:31:13;11.60;;;10.73;;
51838;SDS011;37886;53.174;6.368;2023-04-03T15:33:39;11.38;;;10.23;;
51838;SDS011;37886;53.174;6.368;2023-04-03T15:36:05;10.10;;;9.32;;
51838;SDS011;37886;53.174;6.368;2023-04-03T15:38:31;10.88;;;9.82;;
51838;SDS011;37886;53.174;6.368;2023-04-03T15:40:57;11.02;;;10.25;;
51838;SDS011;37886;53.174;6.368;2023-04-03T15:43:23;10.15;;;9.45;;
51838;SDS011;37886;53.174;6.368;2023-04-03T15:45:49;10.77;;;9.77;;
51838;SDS011;37886;53.174;6.368;2023-04-03T15:48:15;12.27;;;11.38;;
51838;SDS011;37886;53.174;6.368;2023-04-03T15:50:42;10.52;;;9.63;;
51838;SDS011;37886;53.174;6.368;2023-04-03T15:53:08;10.73;;;9.93;;
51838;SDS011;37886;53.174;6.368;2023-04-03T15:55:34;10.85;;;9.95;;
51838;SDS011;37886;53.174;6.368;2023-04-03T15:58:02;10.55;;;9.60;;
51838;SDS011;37886;53.174;6.368;2023-04-03T16:00:28;10.88;;;9.90;;
51838;SDS011;37886;53.174;6.368;2023-04-03T16:03:27;9.85;;;9.15;;
51838;SDS011;37886;53.174;6.368;2023-04-03T16:05:47;11.18;;;10.27;;
51838;SDS011;37886;53.174;6.368;2023-04-03T16:08:14;11.32;;;10.52;;
51838;SDS011;37886;53.174;6.368;2023-04-03T16:10:41;10.23;;;9.35;;
51838;SDS011;37886;53.174;6.368;2023-04-03T16:13:07;10.48;;;9.65;;
51838;SDS011;37886;53.174;6.368;2023-04-03T16:15:33;10.75;;;9.95;;
51838;SDS011;37886;53.174;6.368;2023-04-03T16:18:00;10.80;;;9.80;;
51838;SDS011;37886;53.174;6.368;2023-04-03T16:20:26;11.23;;;10.43;;
51838;SDS011;37886;53.174;6.368;2023-04-03T16:22:52;10.90;;;9.98;;
51838;SDS011;37886;53.174;6.368;2023-04-03T16:25:18;10.85;;;9.75;;
51838;SDS011;37886;53.174;6.368;2023-04-03T16:27:44;10.40;;;9.57;;
51838;SDS011;37886;53.174;6.368;2023-04-03T16:30:10;11.35;;;10.50;;
51838;SDS011;37886;53.174;6.368;2023-04-03T16:32:37;10.70;;;9.80;;
51838;SDS011;37886;53.174;6.368;2023-04-03T16:35:04;10.40;;;9.70;;
51838;SDS011;37886;53.174;6.368;2023-04-03T16:37:30;11.23;;;10.43;;
51838;SDS011;37886;53.174;6.368;2023-04-03T16:39:56;11.25;;;10.23;;
51838;SDS011;37886;53.174;6.368;2023-04-03T16:42:23;11.52;;;10.50;;
51838;SDS011;37886;53.174;6.368;2023-04-03T16:44:50;11.50;;;10.60;;
51838;SDS011;37886;53.174;6.368;2023-04-03T16:47:16;10.63;;;9.93;;
51838;SDS011;37886;53.174;6.368;2023-04-03T16:49:44;11.60;;;10.55;;
51838;SDS011;37886;53.174;6.368;2023-04-03T16:52:10;10.77;;;9.80;;
51838;SDS011;37886;53.174;6.368;2023-04-03T16:54:36;11.32;;;10.32;;